Time;durP1;ratioP1;P1;durP2;ratioP2;P2;SDS_P1;SDS_P2;PMS_P1;PMS_P2;Temp;Humidity;BMP_temperature;BMP_pressure;BME280_temperature;BME280_humidity;BME280_pressure;Samples;Min_cycle;Max_cycle;Signal;HPM_P1;HPM_P2
2021/11/24 00:09:47;;;;;;;5.22;2.80;;;7.00;99.90;;;;;;20976467;28;20040;-46
2021/11/24 00:19:48;;;;;;;6.65;3.90;;;7.00;99.90;;;;;;20975667;28;20408;-46
2021/11/24 00:29:49;;;;;;;4.85;2.55;;;7.10;99.90;;;;;;20976978;28;20037;-46
2021/11/24 00:39:52;;;;;;;8.85;3.00;;;7.20;99.90;;;;;;20982711;28;20036;-46
2021/11/24 00:49:53;;;;;;;5.68;2.40;;;7.20;99.90;;;;;;20978296;28;20052;-46
2021/11/24 00:59:54;;;;;;;6.20;2.65;;;7.20;99.90;;;;;;20974888;28;20032;-46
2021/11/24 01:09:57;;;;;;;5.50;2.47;;;7.20;99.90;;;;;;20974955;28;20047;-46
2021/11/24 01:19:58;;;;;;;6.07;2.63;;;7.30;99.90;;;;;;20973645;28;20036;-46
2021/11/24 01:29:59;;;;;;;8.52;3.13;;;7.40;99.90;;;;;;20970602;28;20031;-46
2021/11/24 01:40:03;;;;;;;5.05;2.47;;;7.40;99.90;;;;;;20972921;28;20044;-46
2021/11/24 01:50:05;;;;;;;6.63;2.83;;;7.40;99.90;;;;;;20973087;28;20052;-46
2021/11/24 02:00:08;;;;;;;4.93;2.17;;;7.40;99.90;;;;;;20975626;28;20074;-46
2021/11/24 02:10:11;;;;;;;4.57;2.33;;;7.50;99.90;;;;;;20976346;28;20418;-46
2021/11/24 02:20:36;;;;;;;3.72;2.03;;;7.50;99.90;;;;;;20965984;28;20488;-46
2021/11/24 02:30:37;;;;;;;6.22;2.20;;;7.50;99.90;;;;;;20966148;28;20687;-46
2021/11/24 02:40:39;;;;;;;8.63;2.88;;;7.50;99.90;;;;;;20981170;28;20043;-46
2021/11/24 02:50:40;;;;;;;8.38;2.83;;;7.50;99.90;;;;;;20984691;28;20052;-46
2021/11/24 03:00:45;;;;;;;4.97;2.10;;;7.60;99.90;;;;;;20984195;28;20036;-46
2021/11/24 03:10:47;;;;;;;5.05;2.03;;;7.60;99.90;;;;;;20986851;28;20044;-46
2021/11/24 03:20:48;;;;;;;5.80;1.58;;;7.70;99.90;;;;;;20978552;28;20033;-46
2021/11/24 03:30:49;;;;;;;6.20;2.13;;;7.60;99.90;;;;;;20977798;28;20051;-46
2021/11/24 03:40:50;;;;;;;3.05;1.20;;;7.70;99.90;;;;;;20975415;28;20036;-46
2021/11/24 03:50:51;;;;;;;4.25;1.75;;;7.70;99.90;;;;;;20976638;28;20071;-46
2021/11/24 04:00:52;;;;;;;4.13;1.88;;;7.70;99.90;;;;;;20985544;28;20423;-46
2021/11/24 04:10:53;;;;;;;6.15;2.22;;;7.70;99.90;;;;;;20978391;28;20050;-46
2021/11/24 04:20:56;;;;;;;8.50;2.67;;;7.70;99.90;;;;;;20978323;28;20052;-46
2021/11/24 04:30:57;;;;;;;4.53;2.45;;;7.60;99.90;;;;;;20972218;28;20042;-46
2021/11/24 04:40:59;;;;;;;4.78;1.98;;;7.60;99.90;;;;;;20976923;28;20123;-46
2021/11/24 04:51:00;;;;;;;4.60;2.05;;;7.60;99.90;;;;;;20975810;28;20047;-43
2021/11/24 05:01:01;;;;;;;5.35;2.80;;;7.70;99.90;;;;;;20964137;28;20036;-43
2021/11/24 05:11:03;;;;;;;6.63;2.47;;;7.70;99.90;;;;;;20974107;28;20047;-43
2021/11/24 05:21:49;;;;;;;4.55;2.00;;;7.60;99.90;;;;;;20953155;28;20032;-45
2021/11/24 05:31:28;;;;;;;4.10;2.17;;;7.70;99.90;;;;;;20955207;28;21478;-46
2021/11/24 05:41:29;;;;;;;5.18;2.05;;;7.70;99.90;;;;;;20970884;28;20040;-46
2021/11/24 05:51:31;;;;;;;5.28;2.08;;;7.70;99.90;;;;;;20973924;28;20787;-46
2021/11/24 06:01:32;;;;;;;8.40;2.65;;;7.70;99.90;;;;;;20970885;28;20040;-46
2021/11/24 06:11:33;;;;;;;7.68;3.20;;;7.70;99.90;;;;;;20986716;28;20040;-46
2021/11/24 06:21:34;;;;;;;6.20;2.85;;;7.70;99.90;;;;;;20980365;28;20677;-46
2021/11/24 06:31:35;;;;;;;8.68;3.30;;;7.70;99.90;;;;;;20981987;28;20047;-46
2021/11/24 06:41:36;;;;;;;6.22;2.70;;;7.60;99.90;;;;;;20980367;28;20297;-46
2021/11/24 06:51:38;;;;;;;8.60;3.20;;;7.60;99.90;;;;;;20981157;28;20662;-46
2021/11/24 07:01:39;;;;;;;7.53;3.28;;;7.50;99.90;;;;;;20986548;28;20051;-46
2021/11/24 07:11:41;;;;;;;13.27;4.03;;;7.50;99.90;;;;;;20977735;28;20043;-46
2021/11/24 07:21:47;;;;;;;10.80;4.32;;;7.60;99.90;;;;;;20980570;28;20036;-46
2021/11/24 07:31:49;;;;;;;13.23;3.85;;;7.50;99.90;;;;;;20974938;28;20041;-46
2021/11/24 07:41:52;;;;;;;17.65;5.75;;;7.50;99.90;;;;;;20981558;28;20046;-46
2021/11/24 07:51:53;;;;;;;10.30;4.97;;;7.60;99.90;;;;;;20978172;28;20625;-46
2021/11/24 08:01:54;;;;;;;12.48;4.72;;;7.60;99.90;;;;;;20977813;28;20039;-46
2021/11/24 08:11:58;;;;;;;15.13;5.25;;;7.70;99.90;;;;;;20978332;28;20102;-46
2021/11/24 08:21:59;;;;;;;8.13;4.03;;;7.70;99.90;;;;;;20984299;28;20037;-46
2021/11/24 08:32:00;;;;;;;14.07;4.20;;;7.90;99.90;;;;;;20969418;28;20040;-46
2021/11/24 08:42:03;;;;;;;14.63;4.35;;;7.90;99.90;;;;;;20972813;28;20028;-46
2021/11/24 08:52:04;;;;;;;9.80;3.65;;;7.90;99.90;;;;;;21009355;28;20409;-46
2021/11/24 09:02:07;;;;;;;9.80;5.00;;;8.00;99.90;;;;;;21008690;28;20043;-46
2021/11/24 09:12:08;;;;;;;9.50;3.38;;;8.00;99.90;;;;;;21006999;28;20484;-46
2021/11/24 09:22:10;;;;;;;9.13;3.15;;;8.00;99.90;;;;;;21002797;28;20028;-46
2021/11/24 09:32:12;;;;;;;9.15;3.75;;;8.10;99.90;;;;;;21003874;28;20044;-46
2021/11/24 09:42:16;;;;;;;6.20;2.20;;;8.20;99.90;;;;;;20990670;28;20024;-46
2021/11/24 09:52:20;;;;;;;5.72;2.65;;;8.30;99.90;;;;;;20982130;28;20502;-46
2021/11/24 10:02:23;;;;;;;7.93;3.03;;;8.30;99.90;;;;;;20986370;28;20050;-46
2021/11/24 10:12:24;;;;;;;8.07;3.25;;;8.40;99.90;;;;;;20986797;28;20040;-46
2021/11/24 10:22:26;;;;;;;7.63;2.88;;;8.40;99.90;;;;;;20991290;28;21144;-47
2021/11/24 10:32:28;;;;;;;5.50;3.22;;;8.40;99.90;;;;;;20985870;28;20055;-46
2021/11/24 10:42:33;;;;;;;7.50;3.33;;;8.40;99.90;;;;;;20983937;28;20808;-46
2021/11/24 10:52:44;;;;;;;6.70;2.92;;;8.40;99.90;;;;;;20975366;28;20043;-46
2021/11/24 11:02:46;;;;;;;10.48;4.07;;;8.60;99.90;;;;;;20977817;28;20051;-46
2021/11/24 11:12:59;;;;;;;8.13;3.00;;;8.60;99.90;;;;;;20979097;28;20040;-47
2021/11/24 11:23:13;;;;;;;8.38;3.42;;;8.70;99.90;;;;;;20968220;28;20052;-46
2021/11/24 11:33:16;;;;;;;8.55;3.78;;;8.80;99.90;;;;;;20975836;28;20059;-46
2021/11/24 11:43:23;;;;;;;5.15;2.33;;;8.80;99.90;;;;;;20983749;28;20055;-46
2021/11/24 11:53:26;;;;;;;7.83;2.93;;;8.80;99.90;;;;;;20983150;28;20495;-46
2021/11/24 12:03:53;;;;;;;6.00;2.72;;;8.90;99.90;;;;;;20976407;28;20040;-46
2021/11/24 12:13:54;;;;;;;5.20;1.92;;;8.80;99.90;;;;;;20973070;28;20036;-46
2021/11/24 12:24:08;;;;;;;6.00;2.92;;;8.90;99.90;;;;;;20974238;28;20039;-48
2021/11/24 12:34:10;;;;;;;6.25;3.30;;;8.90;99.90;;;;;;20969527;28;20036;-46
2021/11/24 12:44:12;;;;;;;6.72;2.83;;;8.90;99.90;;;;;;20977568;28;20399;-46
2021/11/24 12:54:17;;;;;;;4.03;2.63;;;9.00;99.90;;;;;;20981701;28;20043;-46
2021/11/24 13:04:30;;;;;;;7.75;2.95;;;8.90;99.90;;;;;;20983140;28;20101;-46
2021/11/24 13:14:39;;;;;;;4.70;1.90;;;8.90;99.90;;;;;;20969309;28;20032;-47
2021/11/24 13:24:43;;;;;;;6.55;3.42;;;9.00;99.90;;;;;;20985908;28;20044;-46
2021/11/24 13:34:44;;;;;;;6.47;3.20;;;8.90;99.90;;;;;;20949845;28;20036;-46
2021/11/24 13:44:56;;;;;;;6.80;3.38;;;8.90;99.90;;;;;;20947408;28;20880;-46
2021/11/24 13:54:58;;;;;;;6.97;3.13;;;8.90;99.90;;;;;;20911250;28;20037;-46
2021/11/24 14:05:08;;;;;;;6.13;2.95;;;8.80;99.90;;;;;;20945268;28;20044;-46
2021/11/24 14:15:15;;;;;;;6.60;2.25;;;8.70;99.90;;;;;;20973186;28;20412;-46
2021/11/24 14:25:20;;;;;;;5.43;1.83;;;8.80;99.90;;;;;;20950783;28;20526;-46
2021/11/24 14:35:23;;;;;;;3.92;1.50;;;8.70;99.90;;;;;;20974350;28;20025;-46
2021/11/24 14:45:25;;;;;;;3.55;1.17;;;8.60;99.90;;;;;;20990846;28;20044;-46
2021/11/24 14:55:27;;;;;;;2.13;0.90;;;8.40;99.90;;;;;;20989839;28;20036;-46
2021/11/24 15:05:28;;;;;;;2.30;1.10;;;8.30;99.90;;;;;;20987793;28;20033;-46
2021/11/24 15:15:29;;;;;;;2.72;1.10;;;8.20;99.90;;;;;;20985944;28;20408;-46
2021/11/24 15:25:30;;;;;;;2.10;0.90;;;8.10;99.90;;;;;;20989500;28;20079;-46
2021/11/24 15:35:33;;;;;;;2.08;0.73;;;8.00;99.90;;;;;;20987927;28;20564;-46
2021/11/24 15:45:35;;;;;;;2.35;0.68;;;8.00;99.90;;;;;;20988847;28;20048;-46
2021/11/24 15:55:36;;;;;;;2.90;1.13;;;7.80;99.90;;;;;;20988875;28;20051;-46
2021/11/24 16:05:37;;;;;;;3.00;1.50;;;7.80;99.90;;;;;;20988397;28;20387;-47
2021/11/24 16:15:40;;;;;;;5.32;1.88;;;7.70;99.90;;;;;;20990612;28;20083;-46
2021/11/24 16:25:41;;;;;;;6.72;2.50;;;7.60;99.90;;;;;;20986951;28;20041;-46
2021/11/24 16:35:43;;;;;;;10.20;3.33;;;7.70;99.90;;;;;;20976707;28;20028;-46
2021/11/24 16:45:48;;;;;;;9.27;3.15;;;7.60;99.90;;;;;;20996253;28;20056;-46
2021/11/24 16:55:49;;;;;;;7.47;3.85;;;7.70;99.90;;;;;;20995903;28;20028;-46
2021/11/24 17:05:51;;;;;;;10.32;4.72;;;7.80;99.90;;;;;;21000793;28;20070;-46
2021/11/24 17:15:53;;;;;;;15.57;5.30;;;7.70;99.90;;;;;;20986512;28;20043;-46
2021/11/24 17:25:54;;;;;;;13.57;4.53;;;7.60;99.90;;;;;;20988805;28;20522;-45
2021/11/24 17:35:57;;;;;;;16.70;5.30;;;7.60;99.90;;;;;;20991641;28;20606;-45
2021/11/24 17:45:58;;;;;;;12.63;4.40;;;7.60;99.90;;;;;;20981179;28;20047;-45
2021/11/24 17:56:03;;;;;;;18.20;5.13;;;7.60;99.90;;;;;;20982438;28;20044;-45
2021/11/24 18:06:04;;;;;;;15.43;6.18;;;7.50;99.90;;;;;;20978626;28;20415;-45
2021/11/24 18:16:10;;;;;;;17.13;5.78;;;7.50;99.90;;;;;;21008219;28;20673;-46
2021/11/24 18:26:11;;;;;;;16.50;5.85;;;7.50;99.90;;;;;;21030812;28;20032;-45
2021/11/24 18:36:12;;;;;;;20.80;6.22;;;7.50;99.90;;;;;;21024008;28;20048;-46
2021/11/24 18:46:15;;;;;;;15.40;5.80;;;7.40;99.90;;;;;;21027584;28;20147;-46
2021/11/24 18:56:17;;;;;;;16.48;7.07;;;7.40;99.90;;;;;;21034284;28;20525;-46
2021/11/24 19:06:18;;;;;;;17.00;6.55;;;7.40;99.90;;;;;;21029660;28;20040;-46
2021/11/24 19:16:20;;;;;;;20.45;8.88;;;7.40;99.90;;;;;;21035443;28;20043;-46
2021/11/24 19:26:23;;;;;;;19.58;7.70;;;7.40;99.90;;;;;;21034077;28;20083;-46
2021/11/24 19:36:24;;;;;;;15.40;6.25;;;7.40;99.90;;;;;;21017711;28;20039;-46
2021/11/24 19:46:25;;;;;;;14.95;5.82;;;7.30;99.90;;;;;;21015569;28;20044;-46
2021/11/24 19:56:32;;;;;;;16.15;6.60;;;7.30;99.90;;;;;;21017383;28;20040;-46
2021/11/24 20:06:34;;;;;;;24.38;9.50;;;7.20;99.90;;;;;;21014552;28;20048;-46
2021/11/24 20:16:35;;;;;;;19.88;6.32;;;7.20;99.90;;;;;;21011226;28;20043;-45
2021/11/24 20:26:36;;;;;;;18.17;6.75;;;7.20;99.90;;;;;;21012441;28;20071;-46
2021/11/24 20:36:37;;;;;;;18.73;7.95;;;7.20;99.90;;;;;;21007379;28;20046;-46
2021/11/24 20:46:38;;;;;;;21.13;8.05;;;7.20;99.90;;;;;;21003221;28;20041;-46
2021/11/24 20:56:39;;;;;;;25.10;8.20;;;7.10;99.90;;;;;;21011188;28;20032;-45
2021/11/24 21:06:41;;;;;;;24.17;7.47;;;7.10;99.90;;;;;;21005846;28;20037;-45
2021/11/24 21:16:44;;;;;;;22.33;7.70;;;7.00;99.90;;;;;;20999396;28;20055;-46
2021/11/24 21:26:46;;;;;;;21.58;9.23;;;7.00;99.90;;;;;;20993132;28;20480;-46
2021/11/24 21:36:48;;;;;;;24.73;8.02;;;7.00;99.90;;;;;;21004148;28;20047;-46
2021/11/24 21:46:52;;;;;;;20.70;7.22;;;7.00;99.90;;;;;;20971346;28;20056;-46
2021/11/24 21:56:53;;;;;;;28.40;8.80;;;6.90;99.90;;;;;;20993800;28;20036;-46
2021/11/24 22:07:03;;;;;;;30.08;8.98;;;6.80;99.90;;;;;;20979455;28;20032;-46
2021/11/24 22:17:07;;;;;;;27.25;8.13;;;6.80;99.90;;;;;;20991288;28;20040;-46
2021/11/24 22:27:08;;;;;;;22.20;8.68;;;6.80;99.90;;;;;;20991761;28;21584;-46
2021/11/24 22:37:09;;;;;;;26.50;8.65;;;6.90;99.90;;;;;;20988660;28;20051;-46
2021/11/24 22:47:11;;;;;;;24.65;7.95;;;6.90;99.90;;;;;;20986371;28;20044;-46
2021/11/24 22:57:13;;;;;;;31.42;8.75;;;6.80;99.90;;;;;;20994701;28;20033;-46
2021/11/24 23:07:14;;;;;;;30.52;8.77;;;6.80;99.90;;;;;;20988143;28;20037;-46
2021/11/24 23:17:15;;;;;;;33.10;9.18;;;6.80;99.90;;;;;;20986790;28;20035;-46
2021/11/24 23:27:16;;;;;;;26.95;8.85;;;6.90;99.90;;;;;;20989415;28;20044;-46
2021/11/24 23:37:17;;;;;;;27.88;9.23;;;6.80;99.90;;;;;;20985202;28;20433;-46
2021/11/24 23:47:18;;;;;;;32.75;10.20;;;6.80;99.90;;;;;;20984518;28;20396;-46
2021/11/24 23:57:19;;;;;;;28.92;7.13;;;6.80;99.90;;;;;;20984757;28;20040;-46
